Time;durP1;ratioP1;P1;durP2;ratioP2;P2;SDS_P1;SDS_P2;PMS_P1;PMS_P2;Temp;Humidity;BMP_temperature;BMP_pressure;BME280_temperature;BME280_humidity;BME280_pressure;Samples;Min_cycle;Max_cycle;Signal;HPM_P1;HPM_P2
2022/01/27 00:05:17;;;;;;;46.80;22.33;;;;;;;;;;5071483;28;20483;-63
2022/01/27 00:07:43;;;;;;;51.03;22.88;;;;;;;;;;5071846;28;20055;-63
2022/01/27 00:12:36;;;;;;;51.22;22.55;;;;;;;;;;5072416;28;20036;-63
2022/01/27 00:15:11;;;;;;;42.90;21.05;;;;;;;;;;5071658;28;20067;-63
2022/01/27 00:17:42;;;;;;;50.70;21.83;;;;;;;;;;5072011;28;20083;-63
2022/01/27 00:20:08;;;;;;;51.50;22.95;;;;;;;;;;5072036;28;20051;-63
2022/01/27 00:22:34;;;;;;;46.58;22.23;;;;;;;;;;5071779;28;20391;-63
2022/01/27 00:25:05;;;;;;;45.55;22.52;;;;;;;;;;5071489;28;20060;-63
2022/01/27 00:27:31;;;;;;;46.88;20.45;;;;;;;;;;5072004;28;20444;-63
2022/01/27 00:30:00;;;;;;;43.67;20.90;;;;;;;;;;5071006;28;20147;-63
2022/01/27 00:32:26;;;;;;;42.78;19.77;;;;;;;;;;5072091;28;20040;-63
2022/01/27 00:34:53;;;;;;;45.20;21.08;;;;;;;;;;5071941;28;20498;-63
2022/01/27 00:37:19;;;;;;;49.72;21.48;;;;;;;;;;5069979;28;20495;-63
2022/01/27 00:39:45;;;;;;;39.08;19.17;;;;;;;;;;5071789;28;20044;-63
2022/01/27 00:42:11;;;;;;;41.25;20.98;;;;;;;;;;5071846;28;20398;-63
2022/01/27 00:44:37;;;;;;;42.00;19.88;;;;;;;;;;5070720;28;20044;-63
2022/01/27 00:47:03;;;;;;;41.58;20.90;;;;;;;;;;5071717;28;20475;-63
2022/01/27 00:49:29;;;;;;;47.65;21.42;;;;;;;;;;5071707;28;20041;-63
2022/01/27 00:51:56;;;;;;;42.60;21.63;;;;;;;;;;5071044;28;20521;-63
2022/01/27 00:54:26;;;;;;;51.80;20.67;;;;;;;;;;5071633;28;20146;-63
2022/01/27 00:59:34;;;;;;;44.03;21.55;;;;;;;;;;5071097;28;20595;-63
2022/01/27 01:04:39;;;;;;;41.75;20.13;;;;;;;;;;5060843;28;20040;-63
2022/01/27 01:07:06;;;;;;;46.17;20.33;;;;;;;;;;5069680;28;20403;-63
2022/01/27 01:15:11;;;;;;;44.97;20.73;;;;;;;;;;5071258;28;20041;-63
2022/01/27 01:17:45;;;;;;;42.83;20.60;;;;;;;;;;5071103;28;20036;-63
2022/01/27 01:31:12;;;;;;;37.10;18.92;;;;;;;;;;5071232;28;20110;-63
2022/01/27 01:33:40;;;;;;;40.78;18.38;;;;;;;;;;5071129;28;20044;-63
2022/01/27 01:36:15;;;;;;;43.95;19.65;;;;;;;;;;5070618;28;20157;-63
2022/01/27 01:38:43;;;;;;;40.83;19.38;;;;;;;;;;5071156;28;20115;-63
2022/01/27 01:41:10;;;;;;;42.63;17.90;;;;;;;;;;5070776;28;20097;-63
2022/01/27 01:43:36;;;;;;;42.10;18.80;;;;;;;;;;5070320;28;20042;-63
2022/01/27 01:46:02;;;;;;;36.92;18.13;;;;;;;;;;5070915;28;20044;-63
2022/01/27 01:48:28;;;;;;;43.47;18.98;;;;;;;;;;5070921;28;20111;-63
2022/01/27 01:50:55;;;;;;;38.03;19.50;;;;;;;;;;5070192;28;20044;-63
2022/01/27 01:53:21;;;;;;;42.63;18.65;;;;;;;;;;5070985;28;20044;-63
2022/01/27 01:55:47;;;;;;;38.10;17.45;;;;;;;;;;5070996;28;20041;-63
2022/01/27 01:58:13;;;;;;;39.63;18.30;;;;;;;;;;5070548;28;20481;-63
2022/01/27 02:00:39;;;;;;;41.80;19.02;;;;;;;;;;5071010;28;20052;-63
2022/01/27 02:03:05;;;;;;;37.00;18.15;;;;;;;;;;5070800;28;20090;-63
2022/01/27 02:05:38;;;;;;;42.58;18.92;;;;;;;;;;5070011;28;20055;-63
2022/01/27 02:19:09;;;;;;;41.72;19.63;;;;;;;;;;5070432;28;20127;-63
2022/01/27 02:21:43;;;;;;;40.85;18.77;;;;;;;;;;5070796;28;20487;-63
2022/01/27 02:24:09;;;;;;;36.03;18.48;;;;;;;;;;5070470;28;20394;-63
2022/01/27 02:26:35;;;;;;;46.20;20.63;;;;;;;;;;5069806;28;20056;-63
2022/01/27 02:29:01;;;;;;;38.67;18.95;;;;;;;;;;5073016;28;20048;-63
2022/01/27 02:31:27;;;;;;;39.38;18.88;;;;;;;;;;5074191;28;20124;-63
2022/01/27 02:33:57;;;;;;;46.30;20.02;;;;;;;;;;5073434;28;20127;-63
2022/01/27 02:36:23;;;;;;;42.58;19.42;;;;;;;;;;5074336;28;20033;-63
2022/01/27 02:38:49;;;;;;;43.63;19.25;;;;;;;;;;5074248;28;20145;-63
2022/01/27 02:41:16;;;;;;;49.33;21.35;;;;;;;;;;5073242;28;20051;-63
2022/01/27 02:43:42;;;;;;;40.70;20.27;;;;;;;;;;5074071;28;20083;-63
2022/01/27 02:46:12;;;;;;;42.58;21.33;;;;;;;;;;5074109;28;20593;-63
2022/01/27 02:48:38;;;;;;;39.38;19.63;;;;;;;;;;5073601;28;20094;-63
2022/01/27 02:51:04;;;;;;;50.30;22.00;;;;;;;;;;5074044;28;20082;-63
2022/01/27 02:53:30;;;;;;;44.20;19.88;;;;;;;;;;5073786;28;20040;-63
2022/01/27 02:55:56;;;;;;;46.58;21.25;;;;;;;;;;5073628;28;20085;-63
2022/01/27 02:58:22;;;;;;;45.55;20.95;;;;;;;;;;5073450;28;20075;-63
2022/01/27 03:00:48;;;;;;;43.35;20.88;;;;;;;;;;5073531;28;20040;-63
2022/01/27 03:03:14;;;;;;;48.67;22.38;;;;;;;;;;5073916;28;20444;-63
2022/01/27 03:05:40;;;;;;;44.53;21.45;;;;;;;;;;5072566;28;20044;-63
2022/01/27 03:08:06;;;;;;;47.88;21.70;;;;;;;;;;5073787;28;20547;-63
2022/01/27 03:10:34;;;;;;;45.97;21.10;;;;;;;;;;5073682;28;20041;-63
2022/01/27 03:13:01;;;;;;;41.90;20.88;;;;;;;;;;5072623;28;20119;-63
2022/01/27 03:15:27;;;;;;;41.58;21.88;;;;;;;;;;5073239;28;20045;-63
2022/01/27 03:17:53;;;;;;;44.15;22.05;;;;;;;;;;5073482;28;20398;-63
2022/01/27 03:20:19;;;;;;;47.22;22.55;;;;;;;;;;5072928;28;20044;-63
2022/01/27 03:22:46;;;;;;;43.88;21.35;;;;;;;;;;5073619;28;20123;-63
2022/01/27 03:25:12;;;;;;;47.00;21.88;;;;;;;;;;5072432;28;20171;-63
2022/01/27 03:27:45;;;;;;;47.80;21.60;;;;;;;;;;5071412;28;20492;-63
2022/01/27 03:30:11;;;;;;;44.47;21.02;;;;;;;;;;5073024;28;20051;-63
2022/01/27 03:32:37;;;;;;;46.53;21.25;;;;;;;;;;5073161;28;20041;-63
2022/01/27 03:35:03;;;;;;;43.30;21.45;;;;;;;;;;5072610;28;20382;-63
2022/01/27 03:37:30;;;;;;;45.08;20.88;;;;;;;;;;5073101;28;20040;-63
2022/01/27 03:39:56;;;;;;;43.22;21.90;;;;;;;;;;5072278;28;20048;-63
2022/01/27 03:42:23;;;;;;;54.03;24.13;;;;;;;;;;5072311;28;20036;-64
2022/01/27 03:44:49;;;;;;;53.30;23.13;;;;;;;;;;5072756;28;20048;-64
2022/01/27 03:47:15;;;;;;;47.58;22.23;;;;;;;;;;5073126;28;20045;-63
2022/01/27 03:49:41;;;;;;;47.03;21.33;;;;;;;;;;5071934;28;20040;-63
2022/01/27 03:52:07;;;;;;;47.90;21.83;;;;;;;;;;5072955;28;20083;-63
2022/01/27 03:54:33;;;;;;;51.42;22.70;;;;;;;;;;5072752;28;20528;-63
2022/01/27 03:57:00;;;;;;;40.65;19.63;;;;;;;;;;5072032;28;20041;-63
2022/01/27 03:59:27;;;;;;;48.72;21.77;;;;;;;;;;5072837;28;20093;-63
2022/01/27 04:01:53;;;;;;;51.28;22.30;;;;;;;;;;5072402;28;20459;-63
2022/01/27 04:04:19;;;;;;;41.78;22.67;;;;;;;;;;5071658;28;20040;-63
2022/01/27 04:06:49;;;;;;;44.78;20.80;;;;;;;;;;5072800;28;20063;-63
2022/01/27 04:09:15;;;;;;;47.08;21.25;;;;;;;;;;5072434;28;20044;-63
2022/01/27 04:11:42;;;;;;;43.25;21.70;;;;;;;;;;5071527;28;20040;-63
2022/01/27 04:14:10;;;;;;;45.88;19.20;;;;;;;;;;5072432;28;20044;-63
2022/01/27 04:16:37;;;;;;;53.30;21.00;;;;;;;;;;5072234;28;20040;-63
2022/01/27 04:19:03;;;;;;;49.35;23.70;;;;;;;;;;5071831;28;20071;-63
2022/01/27 04:21:29;;;;;;;47.22;22.45;;;;;;;;;;5072295;28;20087;-63
2022/01/27 04:23:55;;;;;;;46.65;21.27;;;;;;;;;;5072191;28;20445;-63
2022/01/27 04:26:27;;;;;;;44.80;22.30;;;;;;;;;;5070724;28;20048;-63
2022/01/27 04:28:54;;;;;;;50.53;21.52;;;;;;;;;;5071785;28;20045;-63
2022/01/27 04:31:22;;;;;;;45.83;21.83;;;;;;;;;;5072082;28;20053;-63
2022/01/27 04:33:48;;;;;;;44.83;20.25;;;;;;;;;;5071246;28;20037;-63
2022/01/27 04:36:24;;;;;;;52.53;22.70;;;;;;;;;;5071742;28;20075;-63
2022/01/27 04:44:40;;;;;;;45.63;21.80;;;;;;;;;;5071592;28;20056;-63
2022/01/27 04:47:20;;;;;;;47.55;21.92;;;;;;;;;;5071334;28;20040;-63
2022/01/27 04:49:47;;;;;;;45.08;20.35;;;;;;;;;;5071689;28;20076;-63
2022/01/27 04:52:13;;;;;;;41.90;21.50;;;;;;;;;;5071588;28;20047;-63
2022/01/27 04:54:57;;;;;;;51.88;21.55;;;;;;;;;;5070671;28;20040;-63
2022/01/27 04:57:25;;;;;;;45.13;20.15;;;;;;;;;;5071774;28;20453;-63
2022/01/27 04:59:51;;;;;;;46.00;19.33;;;;;;;;;;5071896;28;20474;-64
2022/01/27 05:02:27;;;;;;;45.50;20.73;;;;;;;;;;5071087;28;20040;-63
2022/01/27 05:04:53;;;;;;;44.35;20.48;;;;;;;;;;5071498;28;20044;-63
2022/01/27 05:07:19;;;;;;;43.47;20.98;;;;;;;;;;5071550;28;20040;-63
2022/01/27 05:09:57;;;;;;;60.28;21.35;;;;;;;;;;5070760;28;20036;-63
2022/01/27 05:12:48;;;;;;;47.15;19.45;;;;;;;;;;5071473;28;20041;-63
2022/01/27 05:15:10;;;;;;;50.40;20.35;;;;;;;;;;5070843;28;20050;-63
2022/01/27 05:17:36;;;;;;;41.83;20.05;;;;;;;;;;5070817;28;20036;-63
2022/01/27 05:20:02;;;;;;;49.42;21.02;;;;;;;;;;5071581;28;20094;-63
2022/01/27 05:22:28;;;;;;;44.88;20.55;;;;;;;;;;5071137;28;20080;-63
2022/01/27 05:24:54;;;;;;;45.80;18.63;;;;;;;;;;5070375;28;20048;-63
2022/01/27 05:27:20;;;;;;;47.83;20.52;;;;;;;;;;5071285;28;20078;-63
2022/01/27 05:29:46;;;;;;;47.42;19.90;;;;;;;;;;5071147;28;20123;-63
2022/01/27 05:32:12;;;;;;;43.88;19.98;;;;;;;;;;5070689;28;20075;-63
2022/01/27 05:34:38;;;;;;;43.03;19.83;;;;;;;;;;5071121;28;20063;-63
2022/01/27 05:37:04;;;;;;;51.20;21.70;;;;;;;;;;5071224;28;20681;-63
2022/01/27 05:39:30;;;;;;;40.88;19.55;;;;;;;;;;5070725;28;20467;-63
2022/01/27 05:41:56;;;;;;;45.28;19.83;;;;;;;;;;5071070;28;20041;-63
2022/01/27 05:44:23;;;;;;;51.30;19.88;;;;;;;;;;5071179;28;20047;-63
2022/01/27 05:46:48;;;;;;;41.60;18.13;;;;;;;;;;5070624;28;20043;-63
2022/01/27 05:49:15;;;;;;;45.13;20.02;;;;;;;;;;5071334;28;20456;-63
2022/01/27 05:51:41;;;;;;;45.45;18.75;;;;;;;;;;5070977;28;20040;-63
2022/01/27 05:54:07;;;;;;;48.42;19.40;;;;;;;;;;5070374;28;20479;-63
2022/01/27 05:56:33;;;;;;;41.65;19.58;;;;;;;;;;5071011;28;20036;-63
2022/01/27 05:58:59;;;;;;;41.58;17.30;;;;;;;;;;5071202;28;20040;-63
2022/01/27 06:01:25;;;;;;;40.75;18.73;;;;;;;;;;5070300;28;20045;-63
2022/01/27 06:03:51;;;;;;;40.00;17.85;;;;;;;;;;5073792;28;20051;-63
2022/01/27 06:06:17;;;;;;;46.95;19.95;;;;;;;;;;5074921;28;20064;-63
2022/01/27 06:08:44;;;;;;;46.28;18.50;;;;;;;;;;5074017;28;20041;-63
2022/01/27 06:11:10;;;;;;;46.35;18.33;;;;;;;;;;5074672;28;20463;-63
2022/01/27 06:13:36;;;;;;;47.65;18.55;;;;;;;;;;5074245;28;20041;-63
2022/01/27 06:16:09;;;;;;;53.17;20.63;;;;;;;;;;5074042;28;20037;-63
2022/01/27 06:18:35;;;;;;;;;;;;;;;;;;5075101;28;20045;-63
2022/01/27 06:21:03;;;;;;;44.53;17.10;;;;;;;;;;5074516;28;19935;-63
2022/01/27 06:23:29;;;;;;;49.38;19.38;;;;;;;;;;5073930;28;20503;-63
2022/01/27 06:25:56;;;;;;;44.88;18.90;;;;;;;;;;5073862;28;20075;-63
2022/01/27 06:28:22;;;;;;;50.47;19.88;;;;;;;;;;5074479;28;20044;-63
2022/01/27 06:30:48;;;;;;;50.88;20.25;;;;;;;;;;5073237;28;20079;-63
2022/01/27 06:33:14;;;;;;;51.60;20.52;;;;;;;;;;5074511;28;20560;-63
2022/01/27 06:35:40;;;;;;;49.35;19.67;;;;;;;;;;5074274;28;20391;-63
2022/01/27 06:38:07;;;;;;;45.17;19.30;;;;;;;;;;5073446;28;20039;-63
2022/01/27 06:40:32;;;;;;;47.95;20.85;;;;;;;;;;5074237;28;20064;-64
2022/01/27 06:42:59;;;;;;;49.45;19.67;;;;;;;;;;5073806;28;20048;-64
2022/01/27 06:45:25;;;;;;;49.58;19.08;;;;;;;;;;5073268;28;20090;-63
2022/01/27 06:47:51;;;;;;;41.58;18.33;;;;;;;;;;5073880;28;20127;-63
2022/01/27 06:50:17;;;;;;;45.85;19.23;;;;;;;;;;5074006;28;20051;-64
2022/01/27 06:52:43;;;;;;;42.22;19.20;;;;;;;;;;5073994;28;20518;-64
2022/01/27 06:55:10;;;;;;;45.45;19.55;;;;;;;;;;5073376;28;20033;-64
2022/01/27 06:57:36;;;;;;;43.53;17.80;;;;;;;;;;5073739;28;20051;-64
2022/01/27 07:00:03;;;;;;;45.30;18.42;;;;;;;;;;5073609;28;20123;-63
2022/01/27 07:02:29;;;;;;;38.72;17.27;;;;;;;;;;5072931;28;20571;-64
2022/01/27 07:04:56;;;;;;;44.10;18.30;;;;;;;;;;5073568;28;20083;-64
2022/01/27 07:07:22;;;;;;;40.72;17.00;;;;;;;;;;5073865;28;20044;-64
2022/01/27 07:09:48;;;;;;;39.28;17.45;;;;;;;;;;5072856;28;20391;-64
2022/01/27 07:12:14;;;;;;;41.03;17.00;;;;;;;;;;5073757;28;20043;-64
2022/01/27 07:14:40;;;;;;;36.22;15.93;;;;;;;;;;5071682;28;20045;-64
2022/01/27 07:17:07;;;;;;;38.17;17.73;;;;;;;;;;5072527;28;20051;-66
2022/01/27 07:19:33;;;;;;;36.30;16.48;;;;;;;;;;5073356;28;20043;-66
2022/01/27 07:21:59;;;;;;;36.05;16.02;;;;;;;;;;5072712;28;20554;-66
2022/01/27 07:24:25;;;;;;;36.40;14.63;;;;;;;;;;5072440;28;20123;-67
2022/01/27 07:26:51;;;;;;;38.72;15.02;;;;;;;;;;5080374;28;20055;-67
2022/01/27 07:29:17;;;;;;;36.90;14.20;;;;;;;;;;5089627;28;20054;-65
2022/01/27 07:31:43;;;;;;;38.08;14.40;;;;;;;;;;5067020;28;20044;-64
2022/01/27 07:34:10;;;;;;;34.83;14.30;;;;;;;;;;5069194;28;20054;-65
2022/01/27 07:36:36;;;;;;;32.13;14.32;;;;;;;;;;5070732;28;20040;-67
2022/01/27 07:39:02;;;;;;;34.55;15.73;;;;;;;;;;5070250;28;20036;-66
2022/01/27 07:41:28;;;;;;;34.42;15.80;;;;;;;;;;5070078;28;20045;-64
2022/01/27 07:43:54;;;;;;;35.45;14.90;;;;;;;;;;5072054;28;20146;-65
2022/01/27 07:46:20;;;;;;;36.58;14.77;;;;;;;;;;5071015;28;20075;-64
2022/01/27 07:48:46;;;;;;;36.25;14.85;;;;;;;;;;5071484;28;20510;-64
2022/01/27 07:51:12;;;;;;;28.58;14.82;;;;;;;;;;5071544;28;20063;-66
2022/01/27 07:53:40;;;;;;;36.38;14.25;;;;;;;;;;5068547;28;20113;-66
2022/01/27 07:56:06;;;;;;;30.33;14.43;;;;;;;;;;5071346;28;20086;-65
2022/01/27 07:58:38;;;;;;;37.33;16.67;;;;;;;;;;5070402;28;20433;-65
2022/01/27 08:01:05;;;;;;;44.47;16.07;;;;;;;;;;5074628;28;20040;-65
2022/01/27 08:03:31;;;;;;;41.00;16.23;;;;;;;;;;5071564;28;20056;-66
2022/01/27 08:05:57;;;;;;;43.08;16.35;;;;;;;;;;5076223;28;20440;-67
2022/01/27 08:08:23;;;;;;;45.85;18.05;;;;;;;;;;5057354;28;20120;-67
2022/01/27 08:10:49;;;;;;;41.35;16.88;;;;;;;;;;5069641;28;20045;-66
2022/01/27 08:13:16;;;;;;;49.35;17.70;;;;;;;;;;5071600;28;20090;-65
2022/01/27 08:15:42;;;;;;;32.35;17.52;;;;;;;;;;5067937;28;20379;-65
2022/01/27 08:18:08;;;;;;;46.22;18.38;;;;;;;;;;5071593;28;20495;-65
2022/01/27 08:20:34;;;;;;;44.67;17.45;;;;;;;;;;5083500;28;20044;-65
2022/01/27 08:23:01;;;;;;;47.53;18.13;;;;;;;;;;5069420;28;20048;-65
2022/01/27 08:25:27;;;;;;;48.92;18.05;;;;;;;;;;5070296;28;20056;-66
2022/01/27 08:27:55;;;;;;;50.70;18.42;;;;;;;;;;5072966;28;20577;-66
2022/01/27 08:30:25;;;;;;;49.67;18.50;;;;;;;;;;5071105;28;20086;-66
2022/01/27 08:33:04;;;;;;;56.75;17.70;;;;;;;;;;5070886;28;20044;-66
2022/01/27 08:35:30;;;;;;;54.85;16.67;;;;;;;;;;5068796;28;20143;-67
2022/01/27 08:37:56;;;;;;;49.63;15.70;;;;;;;;;;5070718;28;20028;-64
2022/01/27 08:40:22;;;;;;;59.22;16.83;;;;;;;;;;5069764;28;20047;-65
2022/01/27 08:42:48;;;;;;;50.63;16.48;;;;;;;;;;5070689;28;20048;-65
2022/01/27 08:45:15;;;;;;;48.55;16.13;;;;;;;;;;5069729;28;20071;-64
2022/01/27 08:47:43;;;;;;;45.15;15.23;;;;;;;;;;5070532;28;20692;-67
2022/01/27 08:50:10;;;;;;;42.90;15.38;;;;;;;;;;5070962;28;20044;-65
2022/01/27 08:52:36;;;;;;;43.38;15.48;;;;;;;;;;5071176;28;20040;-66
2022/01/27 08:55:03;;;;;;;48.97;16.23;;;;;;;;;;5070601;28;20491;-66
2022/01/27 08:57:29;;;;;;;46.72;14.93;;;;;;;;;;5071002;28;20072;-65
2022/01/27 08:59:56;;;;;;;45.38;15.15;;;;;;;;;;5062256;28;20094;-65
2022/01/27 09:02:22;;;;;;;46.13;15.77;;;;;;;;;;5070331;28;20036;-65
2022/01/27 09:04:48;;;;;;;38.22;13.60;;;;;;;;;;5069571;28;20079;-64
2022/01/27 09:07:17;;;;;;;40.47;13.80;;;;;;;;;;5069914;28;20683;-63
2022/01/27 09:09:43;;;;;;;36.15;13.30;;;;;;;;;;5072888;28;20133;-63
2022/01/27 09:12:10;;;;;;;34.53;12.18;;;;;;;;;;5069467;28;20048;-64
2022/01/27 09:14:38;;;;;;;39.10;12.57;;;;;;;;;;5069455;28;20119;-65
2022/01/27 09:17:05;;;;;;;34.20;12.27;;;;;;;;;;5066730;28;20062;-66
2022/01/27 09:19:36;;;;;;;38.33;14.02;;;;;;;;;;5069675;28;20055;-65
2022/01/27 09:22:07;;;;;;;38.67;10.45;;;;;;;;;;5056034;28;20101;-66
2022/01/27 09:24:39;;;;;;;30.58;11.07;;;;;;;;;;5075504;28;20052;-66
2022/01/27 09:27:05;;;;;;;;;;;;;;;;;;5070722;28;20046;-67
2022/01/27 09:29:31;;;;;;;28.10;9.48;;;;;;;;;;5070007;28;20398;-67
2022/01/27 09:31:58;;;;;;;28.17;9.30;;;;;;;;;;5068029;28;20786;-67
2022/01/27 09:34:24;;;;;;;32.90;9.90;;;;;;;;;;5076309;28;20040;-67
2022/01/27 09:36:51;;;;;;;34.55;9.93;;;;;;;;;;5068584;28;20044;-65
2022/01/27 09:39:17;;;;;;;27.35;9.15;;;;;;;;;;5074627;28;20068;-65
2022/01/27 09:41:44;;;;;;;28.23;8.65;;;;;;;;;;5073991;28;20041;-64
2022/01/27 09:44:13;;;;;;;29.38;8.00;;;;;;;;;;5072617;28;20032;-64
2022/01/27 09:46:41;;;;;;;31.02;8.88;;;;;;;;;;5074439;28;20113;-65
2022/01/27 09:49:19;;;;;;;24.30;7.68;;;;;;;;;;5076368;28;20040;-64
2022/01/27 09:51:47;;;;;;;29.80;8.05;;;;;;;;;;5067949;28;20089;-65
2022/01/27 09:54:16;;;;;;;26.48;8.85;;;;;;;;;;5073955;28;20044;-66
2022/01/27 09:56:43;;;;;;;24.95;7.70;;;;;;;;;;5073866;28;20511;-65
2022/01/27 09:59:10;;;;;;;30.52;7.80;;;;;;;;;;5072072;28;20036;-65
2022/01/27 10:01:36;;;;;;;21.67;7.15;;;;;;;;;;5073028;28;20048;-64
2022/01/27 10:04:04;;;;;;;30.00;7.10;;;;;;;;;;5105669;28;20060;-66
2022/01/27 10:06:31;;;;;;;26.80;6.55;;;;;;;;;;5071325;28;20060;-64
2022/01/27 10:09:16;;;;;;;20.92;7.25;;;;;;;;;;5073048;28;20056;-63
2022/01/27 10:11:44;;;;;;;23.92;6.88;;;;;;;;;;5073040;28;20047;-65
2022/01/27 10:14:16;;;;;;;19.10;5.80;;;;;;;;;;5071915;28;20033;-64
2022/01/27 10:16:43;;;;;;;19.83;6.25;;;;;;;;;;5074686;28;20036;-65
2022/01/27 10:19:10;;;;;;;24.02;7.57;;;;;;;;;;5077450;28;20529;-65
2022/01/27 10:21:37;;;;;;;22.80;6.55;;;;;;;;;;5074057;28;20495;-64
2022/01/27 10:24:19;;;;;;;21.52;6.22;;;;;;;;;;5073231;28;20068;-66
2022/01/27 10:26:52;;;;;;;28.35;7.28;;;;;;;;;;5077949;28;20087;-66
2022/01/27 10:29:31;;;;;;;18.88;6.10;;;;;;;;;;5074413;28;20102;-66
2022/01/27 10:32:07;;;;;;;25.50;7.00;;;;;;;;;;5069535;28;20045;-65
2022/01/27 10:34:52;;;;;;;30.58;7.05;;;;;;;;;;5073210;28;20040;-67
2022/01/27 10:37:18;;;;;;;19.88;6.05;;;;;;;;;;5072764;28;20047;-65
2022/01/27 10:39:48;;;;;;;20.00;6.57;;;;;;;;;;5071682;28;20071;-64
2022/01/27 10:42:14;;;;;;;25.58;6.13;;;;;;;;;;5071474;28;20036;-66
2022/01/27 10:44:55;;;;;;;23.80;5.93;;;;;;;;;;5072670;28;20130;-64
2022/01/27 10:47:27;;;;;;;19.00;6.10;;;;;;;;;;5076342;28;20120;-65
2022/01/27 10:50:05;;;;;;;22.67;5.35;;;;;;;;;;5070924;28;20116;-66
2022/01/27 10:52:41;;;;;;;16.10;4.68;;;;;;;;;;5072593;28;20046;-65
2022/01/27 10:55:19;;;;;;;17.73;5.70;;;;;;;;;;5072751;28;20634;-64
2022/01/27 10:57:50;;;;;;;19.63;5.65;;;;;;;;;;5069525;28;20387;-65
2022/01/27 11:00:18;;;;;;;20.10;4.80;;;;;;;;;;5072022;28;20036;-65
2022/01/27 11:02:52;;;;;;;20.60;4.78;;;;;;;;;;5072696;28;20045;-66
2022/01/27 11:05:22;;;;;;;21.90;5.20;;;;;;;;;;5070633;28;20040;-64
2022/01/27 11:07:49;;;;;;;15.13;6.22;;;;;;;;;;5071900;28;20119;-64
2022/01/27 11:10:16;;;;;;;23.08;5.40;;;;;;;;;;5071195;28;20094;-63
2022/01/27 11:12:44;;;;;;;17.45;4.70;;;;;;;;;;5067277;28;20495;-65
2022/01/27 11:15:14;;;;;;;22.50;5.47;;;;;;;;;;5071977;28;20048;-65
2022/01/27 11:17:42;;;;;;;23.35;6.15;;;;;;;;;;5072257;28;20043;-65
2022/01/27 11:23:45;;;;;;;22.45;5.00;;;;;;;;;;5067200;28;20051;-65
2022/01/27 11:26:03;;;;;;;25.58;4.63;;;;;;;;;;5069073;28;20522;-65
2022/01/27 11:28:31;;;;;;;24.48;4.88;;;;;;;;;;5069896;28;20455;-65
2022/01/27 11:31:07;;;;;;;26.27;4.90;;;;;;;;;;5068343;28;20052;-64
2022/01/27 11:33:35;;;;;;;16.80;4.13;;;;;;;;;;5069378;28;20037;-64
2022/01/27 11:36:10;;;;;;;15.55;3.70;;;;;;;;;;5073076;28;20055;-65
2022/01/27 11:38:37;;;;;;;10.98;3.88;;;;;;;;;;5071719;28;20067;-65
2022/01/27 11:41:03;;;;;;;17.63;3.70;;;;;;;;;;5072241;28;20547;-66
2022/01/27 11:43:36;;;;;;;16.65;3.58;;;;;;;;;;5069669;28;20043;-65
2022/01/27 11:46:16;;;;;;;24.83;4.05;;;;;;;;;;5072105;28;20052;-65
2022/01/27 11:48:42;;;;;;;20.85;3.90;;;;;;;;;;5071012;28;20037;-65
2022/01/27 11:51:10;;;;;;;20.40;3.40;;;;;;;;;;5071356;28;20415;-65
2022/01/27 11:53:50;;;;;;;18.88;3.67;;;;;;;;;;5071630;28;20044;-65
2022/01/27 11:56:28;;;;;;;17.08;3.50;;;;;;;;;;5071358;28;20040;-66
2022/01/27 11:58:55;;;;;;;18.73;3.45;;;;;;;;;;5071935;28;20115;-65
2022/01/27 12:01:25;;;;;;;12.98;3.03;;;;;;;;;;5070753;28;20048;-65
2022/01/27 12:04:07;;;;;;;16.00;3.53;;;;;;;;;;5070724;28;20044;-65
2022/01/27 12:06:36;;;;;;;10.90;3.08;;;;;;;;;;5071653;28;20055;-65
2022/01/27 12:09:18;;;;;;;16.60;4.00;;;;;;;;;;5072667;28;20098;-63
2022/01/27 12:11:45;;;;;;;19.60;3.47;;;;;;;;;;5071219;28;20040;-64
2022/01/27 12:14:13;;;;;;;19.48;3.35;;;;;;;;;;5071137;28;20414;-63
2022/01/27 12:16:52;;;;;;;17.70;4.65;;;;;;;;;;5071689;28;20040;-63
2022/01/27 12:19:18;;;;;;;17.27;3.47;;;;;;;;;;5070188;28;20402;-65
2022/01/27 12:21:55;;;;;;;13.05;2.95;;;;;;;;;;5071108;28;20395;-66
2022/01/27 12:24:28;;;;;;;17.83;2.90;;;;;;;;;;5098413;28;20606;-64
2022/01/27 12:26:54;;;;;;;21.20;3.90;;;;;;;;;;5069411;28;20092;-66
2022/01/27 12:29:24;;;;;;;18.15;3.38;;;;;;;;;;5069145;28;20078;-64
2022/01/27 12:31:51;;;;;;;19.33;3.80;;;;;;;;;;5064722;28;20503;-62
2022/01/27 12:34:18;;;;;;;18.17;3.63;;;;;;;;;;5070539;28;20074;-63
2022/01/27 12:36:53;;;;;;;11.60;2.80;;;;;;;;;;5064948;28;20588;-63
2022/01/27 12:39:24;;;;;;;20.00;3.65;;;;;;;;;;5071466;28;20063;-64
2022/01/27 12:41:54;;;;;;;21.80;4.20;;;;;;;;;;5070207;28;20036;-64
2022/01/27 12:44:21;;;;;;;12.73;3.00;;;;;;;;;;5071363;28;20040;-64
2022/01/27 12:47:03;;;;;;;14.88;3.63;;;;;;;;;;5071131;28;20051;-64
2022/01/27 12:49:49;;;;;;;11.93;3.00;;;;;;;;;;5064998;28;20920;-64
2022/01/27 12:52:17;;;;;;;20.65;3.05;;;;;;;;;;5069008;28;20047;-64
2022/01/27 12:54:43;;;;;;;17.85;3.35;;;;;;;;;;5070036;28;20045;-64
2022/01/27 12:57:10;;;;;;;26.20;3.20;;;;;;;;;;5071104;28;20552;-64
2022/01/27 12:59:38;;;;;;;15.07;3.30;;;;;;;;;;5074790;28;20498;-62
2022/01/27 13:02:08;;;;;;;20.30;3.33;;;;;;;;;;5070456;28;20040;-63
2022/01/27 13:04:35;;;;;;;19.75;3.08;;;;;;;;;;5070744;28;20040;-63
2022/01/27 13:07:01;;;;;;;18.25;3.08;;;;;;;;;;5073453;28;20037;-64
2022/01/27 13:09:28;;;;;;;20.83;3.30;;;;;;;;;;5069603;28;20822;-63
2022/01/27 13:11:56;;;;;;;20.13;3.53;;;;;;;;;;5069602;28;20476;-64
2022/01/27 13:14:23;;;;;;;17.13;2.63;;;;;;;;;;5069062;28;20098;-63
2022/01/27 13:16:58;;;;;;;21.25;3.05;;;;;;;;;;5070028;28;20063;-64
2022/01/27 13:19:40;;;;;;;18.55;2.85;;;;;;;;;;5061223;28;20099;-63
2022/01/27 13:22:09;;;;;;;17.20;3.25;;;;;;;;;;5077078;28;20390;-62
2022/01/27 13:24:45;;;;;;;19.58;3.65;;;;;;;;;;5069722;28;20056;-63
2022/01/27 13:27:12;;;;;;;20.45;3.50;;;;;;;;;;5068673;28;20724;-63
2022/01/27 13:29:46;;;;;;;20.98;2.80;;;;;;;;;;5066280;28;20044;-65
2022/01/27 13:32:12;;;;;;;15.10;3.25;;;;;;;;;;5070327;28;20045;-63
2022/01/27 13:34:43;;;;;;;17.00;2.38;;;;;;;;;;5068641;28;20116;-64
2022/01/27 13:37:09;;;;;;;21.83;2.75;;;;;;;;;;5070300;28;20120;-65
2022/01/27 13:42:20;;;;;;;21.58;3.88;;;;;;;;;;5058304;28;20041;-64
2022/01/27 13:44:53;;;;;;;18.38;3.10;;;;;;;;;;5069958;28;20091;-64
2022/01/27 13:47:26;;;;;;;21.50;3.00;;;;;;;;;;5070713;28;20765;-63
2022/01/27 13:49:53;;;;;;;19.75;2.92;;;;;;;;;;5070355;28;20146;-64
2022/01/27 13:52:24;;;;;;;12.68;2.40;;;;;;;;;;5070314;28;20036;-63
2022/01/27 13:54:50;;;;;;;19.83;2.90;;;;;;;;;;5070714;28;20123;-62
2022/01/27 13:57:16;;;;;;;14.38;2.65;;;;;;;;;;5071624;28;20464;-64
2022/01/27 13:59:44;;;;;;;19.08;3.05;;;;;;;;;;5070859;28;20043;-63
2022/01/27 14:02:14;;;;;;;20.25;2.70;;;;;;;;;;5069275;28;20040;-62
2022/01/27 14:04:48;;;;;;;18.95;3.33;;;;;;;;;;5069550;28;20040;-63
2022/01/27 14:07:34;;;;;;;15.05;3.38;;;;;;;;;;5069510;28;20044;-63
2022/01/27 14:10:12;;;;;;;19.00;2.92;;;;;;;;;;5069331;28;20055;-63
2022/01/27 14:12:57;;;;;;;17.48;3.30;;;;;;;;;;5065305;28;20073;-63
2022/01/27 14:15:36;;;;;;;20.40;2.88;;;;;;;;;;5065535;28;20040;-64
2022/01/27 14:18:04;;;;;;;25.30;3.22;;;;;;;;;;5068085;28;20525;-62
2022/01/27 14:20:30;;;;;;;27.67;3.08;;;;;;;;;;5070020;28;20551;-63
2022/01/27 14:23:17;;;;;;;21.13;3.28;;;;;;;;;;5069281;28;20481;-64
2022/01/27 14:25:56;;;;;;;23.35;3.03;;;;;;;;;;5072177;28;20090;-66
2022/01/27 14:28:23;;;;;;;17.95;3.55;;;;;;;;;;5072491;28;20053;-64
2022/01/27 14:30:50;;;;;;;26.08;4.18;;;;;;;;;;5071293;28;20056;-63
2022/01/27 14:33:16;;;;;;;22.25;2.97;;;;;;;;;;5069488;28;20455;-63
2022/01/27 14:35:43;;;;;;;22.48;3.10;;;;;;;;;;5074655;28;20096;-62
2022/01/27 14:38:09;;;;;;;17.85;2.85;;;;;;;;;;5073428;28;20045;-62
2022/01/27 14:40:36;;;;;;;25.60;3.25;;;;;;;;;;5073575;28;20044;-62
2022/01/27 14:43:02;;;;;;;20.95;3.63;;;;;;;;;;5073535;28;20436;-64
2022/01/27 14:45:29;;;;;;;21.33;3.25;;;;;;;;;;5074915;28;20056;-63
2022/01/27 14:48:00;;;;;;;18.17;3.08;;;;;;;;;;5072411;28;20044;-65
2022/01/27 14:50:27;;;;;;;21.33;2.90;;;;;;;;;;5073671;28;20410;-66
2022/01/27 14:52:55;;;;;;;20.38;2.75;;;;;;;;;;5073107;28;20044;-66
2022/01/27 14:55:21;;;;;;;20.73;3.42;;;;;;;;;;5073360;28;20123;-65
2022/01/27 14:57:47;;;;;;;27.83;3.17;;;;;;;;;;5055128;28;20086;-65
2022/01/27 15:00:16;;;;;;;18.88;2.63;;;;;;;;;;5073193;28;20087;-65
2022/01/27 15:02:42;;;;;;;23.65;3.30;;;;;;;;;;5072335;28;20037;-65
2022/01/27 15:05:09;;;;;;;21.75;2.83;;;;;;;;;;5073019;28;20033;-65
2022/01/27 15:07:37;;;;;;;18.85;3.05;;;;;;;;;;5071859;28;20066;-64
2022/01/27 15:10:03;;;;;;;22.92;2.65;;;;;;;;;;5064182;28;20044;-63
2022/01/27 15:12:29;;;;;;;20.50;2.60;;;;;;;;;;5072361;28;20032;-63
2022/01/27 15:20:26;;;;;;;18.75;2.40;;;;;;;;;;5079640;28;20044;-66
2022/01/27 15:22:54;;;;;;;20.35;2.97;;;;;;;;;;5077611;28;20076;-65
2022/01/27 15:25:22;;;;;;;19.02;2.90;;;;;;;;;;5072125;28;20087;-66
2022/01/27 15:27:48;;;;;;;26.02;2.78;;;;;;;;;;5077151;28;20433;-66